モロニ の空港の天気 - METARとTAF

プリンス・サイード・イブラヒーム国際空港 ( FMCH / HAH ) - コモロ モロニ
飛行場実況気象(Metar)
観測時間-
風向・風速- -
視程-
天気現象-
-
気温-
湿度-
気圧-
METAR-
過去の天気等 Google飛行場航空写真 Wunderground天気予報

過去48時間のMETAR

飛行場予報(TAF)
発表時間: -
26日8時 EAT ~ 26日10時 EAT に徐々に
風向・風速南 8m/s
26日18時 EAT ~ 26日20時 EAT に徐々に
風向・風速東南東 5m/s
TAF
FMCH 251700Z 2518/2624 10003KT 9999 FEW020
BECMG 2605/2607 19016KT
BECMG 2615/2617 11010KT